sensor_id;sensor_type;location;lat;lon;timestamp;P1;P2;P0
77413;PMS7003;66486;49.992;19.164;2023-02-23T00:01:22;30.50;26.50;15.25
77413;PMS7003;66486;49.992;19.164;2023-02-23T00:03:50;25.75;21.00;12.50
77413;PMS7003;66486;49.992;19.164;2023-02-23T00:06:21;19.75;16.75;6.50
77413;PMS7003;66486;49.992;19.164;2023-02-23T00:08:49;26.50;19.25;12.25
77413;PMS7003;66486;49.992;19.164;2023-02-23T00:11:16;17.25;16.00;10.00
77413;PMS7003;66486;49.992;19.164;2023-02-23T00:13:45;23.75;21.00;13.25
77413;PMS7003;66486;49.992;19.164;2023-02-23T00:16:15;20.50;16.50;9.50
77413;PMS7003;66486;49.992;19.164;2023-02-23T00:18:47;19.75;18.00;11.25
77413;PMS7003;66486;49.992;19.164;2023-02-23T00:23:52;15.00;14.75;11.50
77413;PMS7003;66486;49.992;19.164;2023-02-23T00:26:20;12.25;10.50;6.00
77413;PMS7003;66486;49.992;19.164;2023-02-23T00:28:48;14.25;14.25;9.25
77413;PMS7003;66486;49.992;19.164;2023-02-23T00:31:17;21.25;18.25;11.50
77413;PMS7003;66486;49.992;19.164;2023-02-23T00:33:50;15.50;15.00;11.00
77413;PMS7003;66486;49.992;19.164;2023-02-23T00:36:18;21.25;18.25;10.25
77413;PMS7003;66486;49.992;19.164;2023-02-23T00:38:47;24.75;21.75;12.75
77413;PMS7003;66486;49.992;19.164;2023-02-23T00:41:17;19.00;15.75;10.50
77413;PMS7003;66486;49.992;19.164;2023-02-23T00:43:47;17.50;17.50;10.50
77413;PMS7003;66486;49.992;19.164;2023-02-23T00:46:14;18.67;16.67;11.33
77413;PMS7003;66486;49.992;19.164;2023-02-23T00:48:42;24.50;19.50;10.00
77413;PMS7003;66486;49.992;19.164;2023-02-23T00:51:10;12.50;10.50;9.50
77413;PMS7003;66486;49.992;19.164;2023-02-23T00:53:37;17.25;16.25;11.00
77413;PMS7003;66486;49.992;19.164;2023-02-23T00:56:03;27.75;24.50;13.00
77413;PMS7003;66486;49.992;19.164;2023-02-23T00:58:30;14.25;14.25;10.00
77413;PMS7003;66486;49.992;19.164;2023-02-23T01:00:56;15.75;15.00;10.00
77413;PMS7003;66486;49.992;19.164;2023-02-23T01:03:26;18.75;17.50;12.25
77413;PMS7003;66486;49.992;19.164;2023-02-23T01:05:52;18.00;17.00;11.00
77413;PMS7003;66486;49.992;19.164;2023-02-23T01:08:20;15.50;14.00;10.50
77413;PMS7003;66486;49.992;19.164;2023-02-23T01:10:49;12.75;12.25;7.00
77413;PMS7003;66486;49.992;19.164;2023-02-23T01:13:19;18.25;17.50;10.00
77413;PMS7003;66486;49.992;19.164;2023-02-23T01:15:45;20.75;19.50;12.75
77413;PMS7003;66486;49.992;19.164;2023-02-23T01:18:13;14.50;14.50;10.00
77413;PMS7003;66486;49.992;19.164;2023-02-23T01:20:40;19.00;17.50;11.00
77413;PMS7003;66486;49.992;19.164;2023-02-23T01:23:07;20.25;18.75;10.00
77413;PMS7003;66486;49.992;19.164;2023-02-23T01:25:33;13.50;12.75;7.50
77413;PMS7003;66486;49.992;19.164;2023-02-23T01:28:00;21.75;20.50;11.00
77413;PMS7003;66486;49.992;19.164;2023-02-23T01:30:26;16.00;13.25;7.50
77413;PMS7003;66486;49.992;19.164;2023-02-23T01:32:52;17.00;15.50;9.25
77413;PMS7003;66486;49.992;19.164;2023-02-23T01:35:18;22.67;21.67;13.00
77413;PMS7003;66486;49.992;19.164;2023-02-23T01:37:44;10.50;9.00;3.00
77413;PMS7003;66486;49.992;19.164;2023-02-23T01:40:11;12.33;12.33;7.67
77413;PMS7003;66486;49.992;19.164;2023-02-23T01:42:58;17.00;15.75;11.50
77413;PMS7003;66486;49.992;19.164;2023-02-23T01:45:39;16.25;16.25;10.00
77413;PMS7003;66486;49.992;19.164;2023-02-23T01:48:10;8.75;8.75;6.00
77413;PMS7003;66486;49.992;19.164;2023-02-23T01:50:44;16.50;14.75;11.00
77413;PMS7003;66486;49.992;19.164;2023-02-23T01:53:17;16.25;16.00;11.00
77413;PMS7003;66486;49.992;19.164;2023-02-23T01:55:48;15.75;15.00;11.00
77413;PMS7003;66486;49.992;19.164;2023-02-23T01:58:19;17.25;17.00;9.75
77413;PMS7003;66486;49.992;19.164;2023-02-23T02:00:49;19.50;19.00;13.00
77413;PMS7003;66486;49.992;19.164;2023-02-23T02:03:33;19.00;17.00;11.50
77413;PMS7003;66486;49.992;19.164;2023-02-23T02:06:00;15.00;13.00;11.00
77413;PMS7003;66486;49.992;19.164;2023-02-23T02:08:31;6.50;6.50;3.25
77413;PMS7003;66486;49.992;19.164;2023-02-23T02:10:59;16.75;14.75;10.50
77413;PMS7003;66486;49.992;19.164;2023-02-23T02:13:26;17.33;13.00;10.67
77413;PMS7003;66486;49.992;19.164;2023-02-23T02:18:49;18.00;15.75;12.00
77413;PMS7003;66486;49.992;19.164;2023-02-23T02:37:13;24.33;24.00;13.00
77413;PMS7003;66486;49.992;19.164;2023-02-23T02:39:58;18.50;15.50;9.00
77413;PMS7003;66486;49.992;19.164;2023-02-23T02:47:46;20.50;18.75;9.75
77413;PMS7003;66486;49.992;19.164;2023-02-23T02:50:21;13.25;12.75;6.00
77413;PMS7003;66486;49.992;19.164;2023-02-23T02:53:09;15.75;15.50;9.75
77413;PMS7003;66486;49.992;19.164;2023-02-23T02:55:38;16.00;15.25;9.75
77413;PMS7003;66486;49.992;19.164;2023-02-23T02:58:08;16.25;13.50;7.50
77413;PMS7003;66486;49.992;19.164;2023-02-23T03:00:38;27.25;25.25;13.50
77413;PMS7003;66486;49.992;19.164;2023-02-23T03:03:30;12.25;12.25;9.50
77413;PMS7003;66486;49.992;19.164;2023-02-23T03:06:23;19.00;18.00;10.00
77413;PMS7003;66486;49.992;19.164;2023-02-23T03:09:35;18.00;16.75;9.75
77413;PMS7003;66486;49.992;19.164;2023-02-23T03:21:48;18.00;18.00;10.00
77413;PMS7003;66486;49.992;19.164;2023-02-23T03:24:41;17.50;17.00;10.00
77413;PMS7003;66486;49.992;19.164;2023-02-23T03:27:47;15.75;13.00;6.75
77413;PMS7003;66486;49.992;19.164;2023-02-23T03:34:02;12.75;12.25;5.75
77413;PMS7003;66486;49.992;19.164;2023-02-23T03:36:57;17.00;17.00;12.00
77413;PMS7003;66486;49.992;19.164;2023-02-23T03:40:05;15.00;13.75;9.25
77413;PMS7003;66486;49.992;19.164;2023-02-23T03:42:56;19.75;18.25;12.25
77413;PMS7003;66486;49.992;19.164;2023-02-23T03:45:45;18.00;15.75;9.75
77413;PMS7003;66486;49.992;19.164;2023-02-23T03:48:32;15.75;15.25;9.25
77413;PMS7003;66486;49.992;19.164;2023-02-23T03:51:19;12.75;12.50;7.00
77413;PMS7003;66486;49.992;19.164;2023-02-23T03:54:10;22.00;16.00;9.00
77413;PMS7003;66486;49.992;19.164;2023-02-23T03:57:00;20.75;15.00;9.25
77413;PMS7003;66486;49.992;19.164;2023-02-23T04:00:07;21.75;21.75;15.00
77413;PMS7003;66486;49.992;19.164;2023-02-23T04:02:55;26.50;24.75;14.00
77413;PMS7003;66486;49.992;19.164;2023-02-23T04:05:42;18.50;18.50;11.00
77413;PMS7003;66486;49.992;19.164;2023-02-23T04:08:37;13.00;12.75;9.25
77413;PMS7003;66486;49.992;19.164;2023-02-23T04:11:26;22.00;19.50;11.00
77413;PMS7003;66486;49.992;19.164;2023-02-23T04:14:18;20.25;18.75;12.00
77413;PMS7003;66486;49.992;19.164;2023-02-23T04:16:51;15.75;15.00;8.25
77413;PMS7003;66486;49.992;19.164;2023-02-23T04:19:17;15.25;14.50;11.00
77413;PMS7003;66486;49.992;19.164;2023-02-23T04:21:44;31.50;30.25;16.00
77413;PMS7003;66486;49.992;19.164;2023-02-23T04:24:09;21.00;18.67;11.33
77413;PMS7003;66486;49.992;19.164;2023-02-23T04:26:36;23.50;21.75;12.00
77413;PMS7003;66486;49.992;19.164;2023-02-23T04:29:02;25.75;21.00;13.00
77413;PMS7003;66486;49.992;19.164;2023-02-23T04:31:28;18.25;18.25;11.00
77413;PMS7003;66486;49.992;19.164;2023-02-23T04:33:54;18.67;17.33;10.00
77413;PMS7003;66486;49.992;19.164;2023-02-23T04:36:20;14.50;12.00;7.00
77413;PMS7003;66486;49.992;19.164;2023-02-23T04:38:46;20.00;19.00;13.00
77413;PMS7003;66486;49.992;19.164;2023-02-23T04:41:13;14.75;14.75;9.75
77413;PMS7003;66486;49.992;19.164;2023-02-23T04:43:38;19.67;18.33;13.67
77413;PMS7003;66486;49.992;19.164;2023-02-23T04:46:04;21.75;18.25;11.75
77413;PMS7003;66486;49.992;19.164;2023-02-23T04:48:30;22.00;18.67;12.00
77413;PMS7003;66486;49.992;19.164;2023-02-23T04:50:56;19.50;18.25;10.75
77413;PMS7003;66486;49.992;19.164;2023-02-23T04:53:22;15.67;14.33;7.67
77413;PMS7003;66486;49.992;19.164;2023-02-23T04:55:48;16.50;16.50;12.00
77413;PMS7003;66486;49.992;19.164;2023-02-23T04:58:14;14.67;14.67;9.67
77413;PMS7003;66486;49.992;19.164;2023-02-23T05:00:40;18.75;18.00;12.50
77413;PMS7003;66486;49.992;19.164;2023-02-23T05:03:06;14.50;14.50;10.50
77413;PMS7003;66486;49.992;19.164;2023-02-23T05:05:33;20.50;19.50;12.00
77413;PMS7003;66486;49.992;19.164;2023-02-23T05:07:59;20.33;13.00;9.67
77413;PMS7003;66486;49.992;19.164;2023-02-23T05:10:25;21.00;18.00;9.00
77413;PMS7003;66486;49.992;19.164;2023-02-23T05:12:51;21.67;21.00;12.00
77413;PMS7003;66486;49.992;19.164;2023-02-23T05:15:17;16.50;13.75;10.25
77413;PMS7003;66486;49.992;19.164;2023-02-23T05:17:43;21.00;20.33;12.00
77413;PMS7003;66486;49.992;19.164;2023-02-23T05:20:09;13.00;12.50;11.50
77413;PMS7003;66486;49.992;19.164;2023-02-23T05:22:36;19.50;18.75;10.00
77413;PMS7003;66486;49.992;19.164;2023-02-23T05:25:03;17.00;16.25;11.50
77413;PMS7003;66486;49.992;19.164;2023-02-23T05:27:29;17.75;15.75;9.00
77413;PMS7003;66486;49.992;19.164;2023-02-23T05:29:57;28.00;20.75;11.75
77413;PMS7003;66486;49.992;19.164;2023-02-23T05:32:23;23.50;22.00;14.00
77413;PMS7003;66486;49.992;19.164;2023-02-23T05:34:49;18.50;18.50;11.50
77413;PMS7003;66486;49.992;19.164;2023-02-23T05:37:15;25.33;22.67;12.67
77413;PMS7003;66486;49.992;19.164;2023-02-23T05:39:41;19.25;18.00;13.00
77413;PMS7003;66486;49.992;19.164;2023-02-23T05:42:06;19.00;17.33;12.67
77413;PMS7003;66486;49.992;19.164;2023-02-23T05:44:33;25.67;23.33;12.33
77413;PMS7003;66486;49.992;19.164;2023-02-23T05:46:58;20.33;18.67;11.33
77413;PMS7003;66486;49.992;19.164;2023-02-23T05:49:25;20.75;19.25;13.75
77413;PMS7003;66486;49.992;19.164;2023-02-23T05:51:51;21.33;18.33;12.00
77413;PMS7003;66486;49.992;19.164;2023-02-23T05:54:17;15.25;15.00;7.50
77413;PMS7003;66486;49.992;19.164;2023-02-23T05:56:43;16.67;14.67;9.33
77413;PMS7003;66486;49.992;19.164;2023-02-23T05:59:09;26.00;23.50;15.00
77413;PMS7003;66486;49.992;19.164;2023-02-23T06:01:35;27.00;22.00;12.00
77413;PMS7003;66486;49.992;19.164;2023-02-23T06:04:01;22.75;21.25;11.75
77413;PMS7003;66486;49.992;19.164;2023-02-23T06:06:27;20.67;18.00;12.00
77413;PMS7003;66486;49.992;19.164;2023-02-23T06:08:53;20.00;18.50;10.00
77413;PMS7003;66486;49.992;19.164;2023-02-23T06:11:20;19.25;17.50;10.50
77413;PMS7003;66486;49.992;19.164;2023-02-23T06:13:46;21.75;17.75;10.00
77413;PMS7003;66486;49.992;19.164;2023-02-23T06:16:12;31.25;27.00;17.50
77413;PMS7003;66486;49.992;19.164;2023-02-23T06:18:38;25.25;23.00;14.50
77413;PMS7003;66486;49.992;19.164;2023-02-23T06:21:04;19.67;18.33;10.00
77413;PMS7003;66486;49.992;19.164;2023-02-23T06:23:31;38.00;37.00;18.25
77413;PMS7003;66486;49.992;19.164;2023-02-23T06:25:57;22.00;20.00;13.00
77413;PMS7003;66486;49.992;19.164;2023-02-23T06:28:25;9.00;7.25;4.00
77413;PMS7003;66486;49.992;19.164;2023-02-23T06:30:51;16.50;16.50;11.50
77413;PMS7003;66486;49.992;19.164;2023-02-23T06:33:18;19.75;19.25;10.50
77413;PMS7003;66486;49.992;19.164;2023-02-23T06:35:45;17.50;13.00;5.50
77413;PMS7003;66486;49.992;19.164;2023-02-23T06:38:11;23.75;23.75;12.75
77413;PMS7003;66486;49.992;19.164;2023-02-23T06:40:37;27.75;24.50;15.00
77413;PMS7003;66486;49.992;19.164;2023-02-23T06:43:04;19.67;16.33;10.67
77413;PMS7003;66486;49.992;19.164;2023-02-23T06:45:30;29.33;27.67;16.00
77413;PMS7003;66486;49.992;19.164;2023-02-23T06:47:58;30.00;28.25;13.00
77413;PMS7003;66486;49.992;19.164;2023-02-23T06:50:24;19.00;18.25;7.50
77413;PMS7003;66486;49.992;19.164;2023-02-23T06:52:50;22.75;20.75;11.50
77413;PMS7003;66486;49.992;19.164;2023-02-23T06:55:16;36.00;32.33;16.00
77413;PMS7003;66486;49.992;19.164;2023-02-23T06:57:42;32.50;30.50;13.00
77413;PMS7003;66486;49.992;19.164;2023-02-23T07:00:09;22.75;22.75;14.75
77413;PMS7003;66486;49.992;19.164;2023-02-23T07:02:42;18.00;13.00;13.00
77413;PMS7003;66486;49.992;19.164;2023-02-23T07:05:09;36.75;32.00;18.50
77413;PMS7003;66486;49.992;19.164;2023-02-23T07:07:36;29.25;27.25;16.25
77413;PMS7003;66486;49.992;19.164;2023-02-23T07:10:03;28.00;26.00;16.50
77413;PMS7003;66486;49.992;19.164;2023-02-23T07:12:30;19.00;18.25;12.25
77413;PMS7003;66486;49.992;19.164;2023-02-23T07:14:56;32.25;31.75;17.50
77413;PMS7003;66486;49.992;19.164;2023-02-23T07:17:22;26.50;22.75;13.50
77413;PMS7003;66486;49.992;19.164;2023-02-23T07:19:48;28.00;24.67;13.67
77413;PMS7003;66486;49.992;19.164;2023-02-23T07:22:14;38.00;36.00;18.00
77413;PMS7003;66486;49.992;19.164;2023-02-23T07:24:40;29.67;28.00;17.33
77413;PMS7003;66486;49.992;19.164;2023-02-23T07:27:06;26.75;24.25;12.25
77413;PMS7003;66486;49.992;19.164;2023-02-23T07:29:32;20.33;16.67;9.67
77413;PMS7003;66486;49.992;19.164;2023-02-23T07:31:58;35.00;31.75;17.00
77413;PMS7003;66486;49.992;19.164;2023-02-23T07:34:24;28.33;28.33;13.67
77413;PMS7003;66486;49.992;19.164;2023-02-23T07:36:50;37.00;31.25;19.00
77413;PMS7003;66486;49.992;19.164;2023-02-23T07:39:16;23.00;22.33;13.00
77413;PMS7003;66486;49.992;19.164;2023-02-23T07:41:42;29.25;28.00;18.00
77413;PMS7003;66486;49.992;19.164;2023-02-23T07:44:08;15.67;12.33;3.33
77413;PMS7003;66486;49.992;19.164;2023-02-23T07:46:34;34.00;30.50;17.25
77413;PMS7003;66486;49.992;19.164;2023-02-23T07:49:00;32.67;31.67;18.67
77413;PMS7003;66486;49.992;19.164;2023-02-23T07:51:26;34.75;31.75;16.25
77413;PMS7003;66486;49.992;19.164;2023-02-23T07:53:52;34.67;30.67;17.33
77413;PMS7003;66486;49.992;19.164;2023-02-23T07:56:19;35.75;29.00;10.50
77413;PMS7003;66486;49.992;19.164;2023-02-23T07:58:45;27.33;24.67;15.33
77413;PMS7003;66486;49.992;19.164;2023-02-23T08:01:11;22.75;20.25;14.00
77413;PMS7003;66486;49.992;19.164;2023-02-23T08:03:38;28.50;25.50;16.25
77413;PMS7003;66486;49.992;19.164;2023-02-23T08:06:04;22.50;19.25;8.50
77413;PMS7003;66486;49.992;19.164;2023-02-23T08:08:30;22.50;20.00;12.75
77413;PMS7003;66486;49.992;19.164;2023-02-23T08:11:00;35.50;31.25;18.00
77413;PMS7003;66486;49.992;19.164;2023-02-23T08:13:28;39.25;35.00;20.00
77413;PMS7003;66486;49.992;19.164;2023-02-23T08:15:55;36.25;34.25;18.50
77413;PMS7003;66486;49.992;19.164;2023-02-23T08:18:21;35.50;31.25;15.00
77413;PMS7003;66486;49.992;19.164;2023-02-23T08:20:47;32.00;29.50;16.50
77413;PMS7003;66486;49.992;19.164;2023-02-23T08:23:13;28.00;27.67;18.00
77413;PMS7003;66486;49.992;19.164;2023-02-23T08:25:39;29.00;25.00;16.00
77413;PMS7003;66486;49.992;19.164;2023-02-23T08:28:05;27.67;22.67;12.33
77413;PMS7003;66486;49.992;19.164;2023-02-23T08:30:31;30.75;28.25;18.00
77413;PMS7003;66486;49.992;19.164;2023-02-23T08:32:58;40.00;37.75;20.50
77413;PMS7003;66486;49.992;19.164;2023-02-23T08:35:26;23.25;22.75;18.50
77413;PMS7003;66486;49.992;19.164;2023-02-23T08:37:54;32.75;31.50;20.00
77413;PMS7003;66486;49.992;19.164;2023-02-23T08:40:22;36.75;36.25;20.50
77413;PMS7003;66486;49.992;19.164;2023-02-23T08:42:48;45.50;40.75;22.25
77413;PMS7003;66486;49.992;19.164;2023-02-23T08:45:17;52.25;45.00;25.50
77413;PMS7003;66486;49.992;19.164;2023-02-23T08:47:43;44.00;39.50;25.25
77413;PMS7003;66486;49.992;19.164;2023-02-23T08:50:10;23.75;23.00;12.50
77413;PMS7003;66486;49.992;19.164;2023-02-23T08:52:37;37.25;34.75;16.25
77413;PMS7003;66486;49.992;19.164;2023-02-23T08:55:04;30.25;28.50;15.25
77413;PMS7003;66486;49.992;19.164;2023-02-23T08:57:34;32.00;29.25;14.50
77413;PMS7003;66486;49.992;19.164;2023-02-23T09:00:01;46.75;42.75;26.00
77413;PMS7003;66486;49.992;19.164;2023-02-23T09:02:39;33.50;31.25;18.25
77413;PMS7003;66486;49.992;19.164;2023-02-23T09:05:06;39.50;32.50;14.50
77413;PMS7003;66486;49.992;19.164;2023-02-23T09:07:32;41.00;34.75;18.00
77413;PMS7003;66486;49.992;19.164;2023-02-23T09:09:58;43.75;39.75;22.25
77413;PMS7003;66486;49.992;19.164;2023-02-23T09:12:24;35.33;31.00;18.67
77413;PMS7003;66486;49.992;19.164;2023-02-23T09:14:50;34.75;31.75;18.00
77413;PMS7003;66486;49.992;19.164;2023-02-23T09:17:18;37.00;35.25;23.75
77413;PMS7003;66486;49.992;19.164;2023-02-23T09:19:45;27.75;27.75;18.25
77413;PMS7003;66486;49.992;19.164;2023-02-23T09:22:11;46.67;40.67;22.00
77413;PMS7003;66486;49.992;19.164;2023-02-23T09:24:37;29.75;29.50;18.75
77413;PMS7003;66486;49.992;19.164;2023-02-23T09:27:03;43.67;40.67;21.33
77413;PMS7003;66486;49.992;19.164;2023-02-23T09:29:32;52.25;43.25;24.25
77413;PMS7003;66486;49.992;19.164;2023-02-23T09:31:58;33.00;32.60;19.00
77413;PMS7003;66486;49.992;19.164;2023-02-23T09:34:24;44.40;39.80;24.00
77413;PMS7003;66486;49.992;19.164;2023-02-23T09:36:50;38.33;32.33;21.33
77413;PMS7003;66486;49.992;19.164;2023-02-23T09:39:16;35.00;32.50;16.50
77413;PMS7003;66486;49.992;19.164;2023-02-23T09:42:01;60.67;49.67;27.00
77413;PMS7003;66486;49.992;19.164;2023-02-23T09:50:21;43.80;39.40;21.00
77413;PMS7003;66486;49.992;19.164;2023-02-23T09:53:32;47.50;42.75;21.00
77413;PMS7003;66486;49.992;19.164;2023-02-23T09:55:48;48.60;45.20;27.40
77413;PMS7003;66486;49.992;19.164;2023-02-23T09:58:22;48.40;43.20;22.40
77413;PMS7003;66486;49.992;19.164;2023-02-23T10:00:57;55.00;45.80;23.60
77413;PMS7003;66486;49.992;19.164;2023-02-23T10:03:27;55.40;46.60;28.60
77413;PMS7003;66486;49.992;19.164;2023-02-23T10:06:00;47.20;41.80;22.80
77413;PMS7003;66486;49.992;19.164;2023-02-23T10:19:55;40.20;40.20;25.60
77413;PMS7003;66486;49.992;19.164;2023-02-23T10:22:33;46.80;43.80;25.40
77413;PMS7003;66486;49.992;19.164;2023-02-23T10:25:46;44.40;39.60;22.00
77413;PMS7003;66486;49.992;19.164;2023-02-23T10:27:50;51.40;44.20;19.40
77413;PMS7003;66486;49.992;19.164;2023-02-23T10:30:21;41.20;37.60;23.00
77413;PMS7003;66486;49.992;19.164;2023-02-23T10:32:51;43.00;40.60;27.00
77413;PMS7003;66486;49.992;19.164;2023-02-23T10:35:29;49.00;45.00;21.40
77413;PMS7003;66486;49.992;19.164;2023-02-23T10:37:56;45.60;42.60;24.80
77413;PMS7003;66486;49.992;19.164;2023-02-23T10:40:26;45.20;42.60;24.00
77413;PMS7003;66486;49.992;19.164;2023-02-23T10:42:58;43.00;42.80;24.80
77413;PMS7003;66486;49.992;19.164;2023-02-23T10:45:26;41.00;39.80;23.20
77413;PMS7003;66486;49.992;19.164;2023-02-23T10:47:56;48.40;44.40;22.00
77413;PMS7003;66486;49.992;19.164;2023-02-23T10:50:25;34.00;31.20;18.00
77413;PMS7003;66486;49.992;19.164;2023-02-23T10:52:53;43.20;39.80;24.80
77413;PMS7003;66486;49.992;19.164;2023-02-23T10:55:27;38.20;34.40;18.00
77413;PMS7003;66486;49.992;19.164;2023-02-23T11:00:29;38.40;34.80;17.40
77413;PMS7003;66486;49.992;19.164;2023-02-23T11:02:58;45.80;43.20;26.20
77413;PMS7003;66486;49.992;19.164;2023-02-23T11:08:07;46.40;44.20;25.00
77413;PMS7003;66486;49.992;19.164;2023-02-23T11:10:57;41.20;39.60;20.20
77413;PMS7003;66486;49.992;19.164;2023-02-23T11:16:03;49.20;42.40;24.00
77413;PMS7003;66486;49.992;19.164;2023-02-23T11:18:30;40.20;38.80;22.80
77413;PMS7003;66486;49.992;19.164;2023-02-23T11:20:56;44.00;41.20;24.80
77413;PMS7003;66486;49.992;19.164;2023-02-23T11:23:24;40.60;38.40;22.00
77413;PMS7003;66486;49.992;19.164;2023-02-23T11:25:54;42.40;40.80;23.20
77413;PMS7003;66486;49.992;19.164;2023-02-23T11:28:35;41.20;38.40;21.40
77413;PMS7003;66486;49.992;19.164;2023-02-23T11:31:16;50.80;45.00;27.40
77413;PMS7003;66486;49.992;19.164;2023-02-23T11:33:45;40.40;38.20;24.80
77413;PMS7003;66486;49.992;19.164;2023-02-23T11:38:47;34.40;32.20;14.00
77413;PMS7003;66486;49.992;19.164;2023-02-23T11:41:27;36.40;35.40;20.60
77413;PMS7003;66486;49.992;19.164;2023-02-23T11:43:57;41.60;37.60;24.40
77413;PMS7003;66486;49.992;19.164;2023-02-23T11:46:23;52.60;46.00;24.60
77413;PMS7003;66486;49.992;19.164;2023-02-23T11:48:56;48.20;41.20;26.00
77413;PMS7003;66486;49.992;19.164;2023-02-23T11:51:32;44.20;40.00;22.40
77413;PMS7003;66486;49.992;19.164;2023-02-23T11:54:06;42.60;40.20;22.00
77413;PMS7003;66486;49.992;19.164;2023-02-23T11:57:03;44.00;42.20;24.00
77413;PMS7003;66486;49.992;19.164;2023-02-23T11:59:34;28.40;28.00;19.80
77413;PMS7003;66486;49.992;19.164;2023-02-23T12:04:51;40.40;40.40;25.00
77413;PMS7003;66486;49.992;19.164;2023-02-23T12:07:45;50.80;46.60;25.40
77413;PMS7003;66486;49.992;19.164;2023-02-23T12:15:44;41.80;40.20;23.60
77413;PMS7003;66486;49.992;19.164;2023-02-23T12:18:21;59.00;50.60;29.20
77413;PMS7003;66486;49.992;19.164;2023-02-23T12:21:24;49.80;44.80;26.20
77413;PMS7003;66486;49.992;19.164;2023-02-23T12:26:43;41.20;39.60;22.40
77413;PMS7003;66486;49.992;19.164;2023-02-23T12:29:22;44.60;38.40;20.20
77413;PMS7003;66486;49.992;19.164;2023-02-23T12:32:40;51.60;46.80;26.80
77413;PMS7003;66486;49.992;19.164;2023-02-23T12:35:17;36.40;34.60;21.60
77413;PMS7003;66486;49.992;19.164;2023-02-23T12:40:38;43.80;43.20;25.00
77413;PMS7003;66486;49.992;19.164;2023-02-23T12:43:24;46.80;42.80;24.60
77413;PMS7003;66486;49.992;19.164;2023-02-23T12:46:07;39.00;35.40;26.20
77413;PMS7003;66486;49.992;19.164;2023-02-23T12:48:43;49.00;42.80;24.60
77413;PMS7003;66486;49.992;19.164;2023-02-23T12:54:01;51.40;43.00;24.20
77413;PMS7003;66486;49.992;19.164;2023-02-23T13:02:39;40.00;39.60;24.40
77413;PMS7003;66486;49.992;19.164;2023-02-23T13:05:23;37.60;34.40;21.80
77413;PMS7003;66486;49.992;19.164;2023-02-23T13:08:45;50.00;44.60;25.00
77413;PMS7003;66486;49.992;19.164;2023-02-23T13:16:21;43.00;40.80;24.40
77413;PMS7003;66486;49.992;19.164;2023-02-23T13:21:43;48.60;44.20;22.20
77413;PMS7003;66486;49.992;19.164;2023-02-23T13:24:20;46.60;45.00;22.20
77413;PMS7003;66486;49.992;19.164;2023-02-23T13:27:14;41.60;39.80;22.20
77413;PMS7003;66486;49.992;19.164;2023-02-23T13:29:43;50.80;48.00;29.60
77413;PMS7003;66486;49.992;19.164;2023-02-23T13:32:12;50.20;45.00;26.60
77413;PMS7003;66486;49.992;19.164;2023-02-23T13:34:43;42.60;41.20;23.40
77413;PMS7003;66486;49.992;19.164;2023-02-23T13:37:17;54.80;45.00;26.20
77413;PMS7003;66486;49.992;19.164;2023-02-23T13:42:23;45.00;42.60;26.60
77413;PMS7003;66486;49.992;19.164;2023-02-23T13:53:06;34.40;30.40;10.40
77413;PMS7003;66486;49.992;19.164;2023-02-23T13:55:50;42.40;39.20;24.20
77413;PMS7003;66486;49.992;19.164;2023-02-23T13:58:18;42.40;40.80;25.40
77413;PMS7003;66486;49.992;19.164;2023-02-23T14:03:39;51.00;47.00;30.00
77413;PMS7003;66486;49.992;19.164;2023-02-23T14:06:09;34.80;31.80;19.20
77413;PMS7003;66486;49.992;19.164;2023-02-23T14:08:39;45.60;42.60;26.60
77413;PMS7003;66486;49.992;19.164;2023-02-23T14:11:09;48.40;44.40;23.60
77413;PMS7003;66486;49.992;19.164;2023-02-23T14:14:01;53.40;47.00;30.00
77413;PMS7003;66486;49.992;19.164;2023-02-23T14:16:27;51.00;47.00;28.80
77413;PMS7003;66486;49.992;19.164;2023-02-23T14:21:29;45.80;44.60;27.60
77413;PMS7003;66486;49.992;19.164;2023-02-23T14:24:18;42.60;39.60;28.60
77413;PMS7003;66486;49.992;19.164;2023-02-23T14:27:03;46.80;42.80;27.60
77413;PMS7003;66486;49.992;19.164;2023-02-23T14:30:10;42.60;40.00;22.80
77413;PMS7003;66486;49.992;19.164;2023-02-23T14:32:38;45.20;42.00;25.00
77413;PMS7003;66486;49.992;19.164;2023-02-23T14:35:52;41.20;37.40;19.40
77413;PMS7003;66486;49.992;19.164;2023-02-23T14:37:59;57.40;51.80;30.40
77413;PMS7003;66486;49.992;19.164;2023-02-23T14:40:32;40.40;37.80;26.20
77413;PMS7003;66486;49.992;19.164;2023-02-23T14:43:03;39.00;36.20;21.00
77413;PMS7003;66486;49.992;19.164;2023-02-23T14:45:58;44.60;42.20;24.80
77413;PMS7003;66486;49.992;19.164;2023-02-23T14:48:30;55.20;48.60;27.00
77413;PMS7003;66486;49.992;19.164;2023-02-23T14:51:20;55.20;50.20;31.00
77413;PMS7003;66486;49.992;19.164;2023-02-23T14:53:50;46.80;41.20;24.00
77413;PMS7003;66486;49.992;19.164;2023-02-23T14:56:19;62.40;53.20;33.00
77413;PMS7003;66486;49.992;19.164;2023-02-23T14:58:51;60.40;52.00;32.60
77413;PMS7003;66486;49.992;19.164;2023-02-23T15:01:35;59.80;52.00;30.00
77413;PMS7003;66486;49.992;19.164;2023-02-23T15:04:07;61.00;48.20;31.00
77413;PMS7003;66486;49.992;19.164;2023-02-23T15:06:36;50.20;47.20;28.80
77413;PMS7003;66486;49.992;19.164;2023-02-23T15:09:04;59.60;48.80;25.80
77413;PMS7003;66486;49.992;19.164;2023-02-23T15:11:33;52.80;48.00;29.60
77413;PMS7003;66486;49.992;19.164;2023-02-23T15:14:01;55.00;48.00;25.00
77413;PMS7003;66486;49.992;19.164;2023-02-23T15:16:34;49.00;42.80;20.20
77413;PMS7003;66486;49.992;19.164;2023-02-23T15:22:01;55.40;48.60;28.60
77413;PMS7003;66486;49.992;19.164;2023-02-23T15:24:31;43.20;41.20;28.60
77413;PMS7003;66486;49.992;19.164;2023-02-23T15:27:14;42.00;40.80;23.80
77413;PMS7003;66486;49.992;19.164;2023-02-23T15:29:42;42.80;41.60;25.00
77413;PMS7003;66486;49.992;19.164;2023-02-23T15:32:10;55.00;49.80;30.00
77413;PMS7003;66486;49.992;19.164;2023-02-23T15:34:44;28.40;24.20;18.60
77413;PMS7003;66486;49.992;19.164;2023-02-23T15:37:12;56.00;48.80;30.00
77413;PMS7003;66486;49.992;19.164;2023-02-23T15:39:47;54.20;48.80;27.00
77413;PMS7003;66486;49.992;19.164;2023-02-23T15:42:52;43.20;38.60;21.80
77413;PMS7003;66486;49.992;19.164;2023-02-23T15:48:03;52.60;48.00;29.20
77413;PMS7003;66486;49.992;19.164;2023-02-23T15:50:41;42.00;41.20;23.60
77413;PMS7003;66486;49.992;19.164;2023-02-23T15:53:57;43.60;38.80;25.40
77413;PMS7003;66486;49.992;19.164;2023-02-23T15:56:24;36.20;35.60;24.00
77413;PMS7003;66486;49.992;19.164;2023-02-23T15:58:55;47.20;45.40;30.60
77413;PMS7003;66486;49.992;19.164;2023-02-23T16:01:24;54.00;48.00;27.00
77413;PMS7003;66486;49.992;19.164;2023-02-23T16:03:55;45.20;42.20;21.60